sensor_id;sensor_type;location;lat;lon;timestamp;P1;durP1;ratioP1;P2;durP2;ratioP2
31347;SDS011;21711;49.708;18.568;2024-02-16T00:01:07;14.30;;;7.85;;
31347;SDS011;21711;49.708;18.568;2024-02-16T00:03:34;11.30;;;6.38;;
31347;SDS011;21711;49.708;18.568;2024-02-16T00:06:02;14.07;;;7.07;;
31347;SDS011;21711;49.708;18.568;2024-02-16T00:08:30;15.75;;;7.35;;
31347;SDS011;21711;49.708;18.568;2024-02-16T00:10:57;15.07;;;7.05;;
31347;SDS011;21711;49.708;18.568;2024-02-16T00:13:25;13.75;;;7.05;;
31347;SDS011;21711;49.708;18.568;2024-02-16T00:15:53;18.08;;;7.55;;
31347;SDS011;21711;49.708;18.568;2024-02-16T00:18:20;14.90;;;8.15;;
31347;SDS011;21711;49.708;18.568;2024-02-16T00:20:48;13.95;;;7.93;;
31347;SDS011;21711;49.708;18.568;2024-02-16T00:23:15;14.35;;;7.15;;
31347;SDS011;21711;49.708;18.568;2024-02-16T00:25:45;18.43;;;7.67;;
31347;SDS011;21711;49.708;18.568;2024-02-16T00:28:13;12.38;;;6.28;;
31347;SDS011;21711;49.708;18.568;2024-02-16T00:30:41;15.10;;;7.60;;
31347;SDS011;21711;49.708;18.568;2024-02-16T00:33:08;12.90;;;7.07;;
31347;SDS011;21711;49.708;18.568;2024-02-16T00:35:36;14.35;;;6.55;;
31347;SDS011;21711;49.708;18.568;2024-02-16T00:38:03;19.58;;;7.35;;
31347;SDS011;21711;49.708;18.568;2024-02-16T00:40:30;13.60;;;6.75;;
31347;SDS011;21711;49.708;18.568;2024-02-16T00:43:02;14.77;;;6.53;;
31347;SDS011;21711;49.708;18.568;2024-02-16T00:45:30;13.90;;;6.80;;
31347;SDS011;21711;49.708;18.568;2024-02-16T00:47:57;12.70;;;6.35;;
31347;SDS011;21711;49.708;18.568;2024-02-16T00:50:25;17.70;;;6.97;;
31347;SDS011;21711;49.708;18.568;2024-02-16T00:52:53;22.33;;;8.38;;
31347;SDS011;21711;49.708;18.568;2024-02-16T00:55:20;16.48;;;7.28;;
31347;SDS011;21711;49.708;18.568;2024-02-16T00:57:48;14.95;;;7.20;;
31347;SDS011;21711;49.708;18.568;2024-02-16T01:00:15;12.13;;;6.82;;
31347;SDS011;21711;49.708;18.568;2024-02-16T01:02:43;16.65;;;7.00;;
31347;SDS011;21711;49.708;18.568;2024-02-16T01:05:10;17.23;;;7.70;;
31347;SDS011;21711;49.708;18.568;2024-02-16T01:07:39;16.20;;;7.75;;
31347;SDS011;21711;49.708;18.568;2024-02-16T01:10:09;12.68;;;6.93;;
31347;SDS011;21711;49.708;18.568;2024-02-16T01:12:36;11.93;;;6.53;;
31347;SDS011;21711;49.708;18.568;2024-02-16T01:15:04;14.80;;;7.38;;
31347;SDS011;21711;49.708;18.568;2024-02-16T01:17:32;15.13;;;6.72;;
31347;SDS011;21711;49.708;18.568;2024-02-16T01:20:00;16.73;;;7.43;;
31347;SDS011;21711;49.708;18.568;2024-02-16T01:22:28;16.92;;;7.72;;
31347;SDS011;21711;49.708;18.568;2024-02-16T01:24:56;19.05;;;8.70;;
31347;SDS011;21711;49.708;18.568;2024-02-16T01:27:24;18.40;;;9.25;;
31347;SDS011;21711;49.708;18.568;2024-02-16T01:29:51;20.40;;;9.68;;
31347;SDS011;21711;49.708;18.568;2024-02-16T01:32:18;19.40;;;8.95;;
31347;SDS011;21711;49.708;18.568;2024-02-16T01:34:46;20.33;;;9.85;;
31347;SDS011;21711;49.708;18.568;2024-02-16T01:37:16;11.73;;;7.47;;
31347;SDS011;21711;49.708;18.568;2024-02-16T01:39:43;15.32;;;7.43;;
31347;SDS011;21711;49.708;18.568;2024-02-16T01:42:11;19.83;;;9.45;;
31347;SDS011;21711;49.708;18.568;2024-02-16T01:44:39;18.30;;;8.57;;
31347;SDS011;21711;49.708;18.568;2024-02-16T01:47:06;20.25;;;10.50;;
31347;SDS011;21711;49.708;18.568;2024-02-16T01:49:34;14.88;;;8.60;;
31347;SDS011;21711;49.708;18.568;2024-02-16T01:52:02;23.42;;;9.48;;
31347;SDS011;21711;49.708;18.568;2024-02-16T01:54:29;18.50;;;9.07;;
31347;SDS011;21711;49.708;18.568;2024-02-16T01:56:57;18.05;;;8.73;;
31347;SDS011;21711;49.708;18.568;2024-02-16T01:59:25;19.20;;;8.57;;
31347;SDS011;21711;49.708;18.568;2024-02-16T02:01:52;21.05;;;8.63;;
31347;SDS011;21711;49.708;18.568;2024-02-16T02:04:20;19.23;;;9.23;;
31347;SDS011;21711;49.708;18.568;2024-02-16T02:06:47;15.23;;;8.63;;
31347;SDS011;21711;49.708;18.568;2024-02-16T02:09:15;15.20;;;8.20;;
31347;SDS011;21711;49.708;18.568;2024-02-16T02:11:43;18.73;;;9.48;;
31347;SDS011;21711;49.708;18.568;2024-02-16T02:14:11;23.02;;;9.60;;
31347;SDS011;21711;49.708;18.568;2024-02-16T02:16:38;18.63;;;9.15;;
31347;SDS011;21711;49.708;18.568;2024-02-16T02:19:20;17.85;;;8.60;;
31347;SDS011;21711;49.708;18.568;2024-02-16T02:21:48;17.05;;;9.20;;
31347;SDS011;21711;49.708;18.568;2024-02-16T02:24:17;16.70;;;8.95;;
31347;SDS011;21711;49.708;18.568;2024-02-16T02:26:44;24.73;;;8.88;;
31347;SDS011;21711;49.708;18.568;2024-02-16T02:29:12;20.33;;;9.30;;
31347;SDS011;21711;49.708;18.568;2024-02-16T02:31:40;18.60;;;9.00;;
31347;SDS011;21711;49.708;18.568;2024-02-16T02:34:07;19.55;;;9.27;;
31347;SDS011;21711;49.708;18.568;2024-02-16T02:36:35;19.45;;;9.30;;
31347;SDS011;21711;49.708;18.568;2024-02-16T02:39:02;18.63;;;9.05;;
31347;SDS011;21711;49.708;18.568;2024-02-16T02:41:30;12.23;;;7.63;;
31347;SDS011;21711;49.708;18.568;2024-02-16T02:43:59;16.55;;;8.77;;
31347;SDS011;21711;49.708;18.568;2024-02-16T02:46:26;21.13;;;8.95;;
31347;SDS011;21711;49.708;18.568;2024-02-16T02:48:54;17.23;;;8.35;;
31347;SDS011;21711;49.708;18.568;2024-02-16T02:51:21;16.30;;;8.38;;
31347;SDS011;21711;49.708;18.568;2024-02-16T02:53:49;18.77;;;8.57;;
31347;SDS011;21711;49.708;18.568;2024-02-16T02:56:16;17.48;;;8.77;;
31347;SDS011;21711;49.708;18.568;2024-02-16T02:58:44;21.88;;;9.70;;
31347;SDS011;21711;49.708;18.568;2024-02-16T03:01:12;16.73;;;8.88;;
31347;SDS011;21711;49.708;18.568;2024-02-16T03:03:40;16.02;;;8.30;;
31347;SDS011;21711;49.708;18.568;2024-02-16T03:06:09;22.67;;;8.43;;
31347;SDS011;21711;49.708;18.568;2024-02-16T03:08:37;18.90;;;9.00;;
31347;SDS011;21711;49.708;18.568;2024-02-16T03:11:04;19.10;;;9.45;;
31347;SDS011;21711;49.708;18.568;2024-02-16T03:13:31;18.65;;;9.65;;
31347;SDS011;21711;49.708;18.568;2024-02-16T03:15:59;14.85;;;7.53;;
31347;SDS011;21711;49.708;18.568;2024-02-16T03:18:30;15.57;;;7.78;;
31347;SDS011;21711;49.708;18.568;2024-02-16T03:20:59;17.38;;;7.60;;
31347;SDS011;21711;49.708;18.568;2024-02-16T03:23:27;20.52;;;9.32;;
31347;SDS011;21711;49.708;18.568;2024-02-16T03:25:54;18.10;;;8.55;;
31347;SDS011;21711;49.708;18.568;2024-02-16T03:28:21;18.55;;;9.32;;
31347;SDS011;21711;49.708;18.568;2024-02-16T03:30:48;13.98;;;7.60;;
31347;SDS011;21711;49.708;18.568;2024-02-16T03:33:16;15.38;;;7.63;;
31347;SDS011;21711;49.708;18.568;2024-02-16T03:35:43;14.32;;;7.10;;
31347;SDS011;21711;49.708;18.568;2024-02-16T03:38:11;18.33;;;7.30;;
31347;SDS011;21711;49.708;18.568;2024-02-16T03:40:39;18.33;;;7.38;;
31347;SDS011;21711;49.708;18.568;2024-02-16T03:43:07;15.98;;;8.10;;
31347;SDS011;21711;49.708;18.568;2024-02-16T03:45:34;18.20;;;8.63;;
31347;SDS011;21711;49.708;18.568;2024-02-16T03:48:02;17.50;;;8.55;;
31347;SDS011;21711;49.708;18.568;2024-02-16T03:50:30;15.80;;;8.18;;
31347;SDS011;21711;49.708;18.568;2024-02-16T03:52:58;19.98;;;7.97;;
31347;SDS011;21711;49.708;18.568;2024-02-16T03:55:26;19.67;;;8.20;;
31347;SDS011;21711;49.708;18.568;2024-02-16T03:57:53;13.75;;;7.13;;
31347;SDS011;21711;49.708;18.568;2024-02-16T04:00:20;15.18;;;6.75;;
31347;SDS011;21711;49.708;18.568;2024-02-16T04:02:48;21.98;;;8.30;;
31347;SDS011;21711;49.708;18.568;2024-02-16T04:05:15;16.30;;;7.00;;
31347;SDS011;21711;49.708;18.568;2024-02-16T04:07:43;16.38;;;7.45;;
31347;SDS011;21711;49.708;18.568;2024-02-16T04:10:10;18.95;;;7.75;;
31347;SDS011;21711;49.708;18.568;2024-02-16T04:12:38;13.48;;;7.45;;
31347;SDS011;21711;49.708;18.568;2024-02-16T04:15:05;18.45;;;7.65;;
31347;SDS011;21711;49.708;18.568;2024-02-16T04:17:33;18.45;;;7.90;;
31347;SDS011;21711;49.708;18.568;2024-02-16T04:20:00;16.83;;;8.00;;
31347;SDS011;21711;49.708;18.568;2024-02-16T04:22:27;14.85;;;7.07;;
31347;SDS011;21711;49.708;18.568;2024-02-16T04:24:55;12.00;;;6.53;;
31347;SDS011;21711;49.708;18.568;2024-02-16T04:27:22;14.15;;;7.63;;
31347;SDS011;21711;49.708;18.568;2024-02-16T04:29:49;17.25;;;7.78;;
31347;SDS011;21711;49.708;18.568;2024-02-16T04:32:17;18.05;;;7.93;;
31347;SDS011;21711;49.708;18.568;2024-02-16T04:34:45;13.77;;;6.57;;
31347;SDS011;21711;49.708;18.568;2024-02-16T04:37:13;12.48;;;6.30;;
31347;SDS011;21711;49.708;18.568;2024-02-16T04:39:40;15.07;;;6.63;;
31347;SDS011;21711;49.708;18.568;2024-02-16T04:42:08;13.93;;;7.13;;
31347;SDS011;21711;49.708;18.568;2024-02-16T04:44:38;18.83;;;6.97;;
31347;SDS011;21711;49.708;18.568;2024-02-16T04:47:06;13.40;;;6.72;;
31347;SDS011;21711;49.708;18.568;2024-02-16T04:49:34;15.25;;;6.63;;
31347;SDS011;21711;49.708;18.568;2024-02-16T04:52:02;16.75;;;6.65;;
31347;SDS011;21711;49.708;18.568;2024-02-16T04:54:30;15.10;;;7.40;;
31347;SDS011;21711;49.708;18.568;2024-02-16T04:56:58;15.77;;;7.03;;
31347;SDS011;21711;49.708;18.568;2024-02-16T04:59:25;13.70;;;7.10;;
31347;SDS011;21711;49.708;18.568;2024-02-16T05:01:54;12.90;;;6.53;;
31347;SDS011;21711;49.708;18.568;2024-02-16T05:04:22;17.33;;;6.65;;
31347;SDS011;21711;49.708;18.568;2024-02-16T05:06:49;15.05;;;6.63;;
31347;SDS011;21711;49.708;18.568;2024-02-16T05:09:19;15.40;;;6.82;;
31347;SDS011;21711;49.708;18.568;2024-02-16T05:11:46;15.98;;;7.43;;
31347;SDS011;21711;49.708;18.568;2024-02-16T05:14:14;15.73;;;6.97;;
31347;SDS011;21711;49.708;18.568;2024-02-16T05:16:44;21.08;;;7.10;;
31347;SDS011;21711;49.708;18.568;2024-02-16T05:19:12;15.57;;;6.93;;
31347;SDS011;21711;49.708;18.568;2024-02-16T05:21:40;15.23;;;8.25;;
31347;SDS011;21711;49.708;18.568;2024-02-16T05:24:07;14.80;;;6.63;;
31347;SDS011;21711;49.708;18.568;2024-02-16T05:26:36;21.20;;;7.05;;
31347;SDS011;21711;49.708;18.568;2024-02-16T05:29:04;12.88;;;6.88;;
31347;SDS011;21711;49.708;18.568;2024-02-16T05:31:31;17.80;;;7.25;;
31347;SDS011;21711;49.708;18.568;2024-02-16T05:33:58;22.52;;;7.50;;
31347;SDS011;21711;49.708;18.568;2024-02-16T05:36:26;13.60;;;6.57;;
31347;SDS011;21711;49.708;18.568;2024-02-16T05:38:57;15.95;;;6.13;;
31347;SDS011;21711;49.708;18.568;2024-02-16T05:41:36;18.25;;;7.25;;
31347;SDS011;21711;49.708;18.568;2024-02-16T05:44:05;16.63;;;6.93;;
31347;SDS011;21711;49.708;18.568;2024-02-16T05:46:32;13.75;;;6.75;;
31347;SDS011;21711;49.708;18.568;2024-02-16T05:49:00;13.05;;;6.43;;
31347;SDS011;21711;49.708;18.568;2024-02-16T05:51:34;17.73;;;6.15;;
31347;SDS011;21711;49.708;18.568;2024-02-16T05:54:09;12.63;;;6.38;;
31347;SDS011;21711;49.708;18.568;2024-02-16T05:56:37;12.57;;;5.75;;
31347;SDS011;21711;49.708;18.568;2024-02-16T05:59:05;15.07;;;5.95;;
31347;SDS011;21711;49.708;18.568;2024-02-16T06:01:33;14.77;;;6.53;;
31347;SDS011;21711;49.708;18.568;2024-02-16T06:04:00;14.93;;;5.50;;
31347;SDS011;21711;49.708;18.568;2024-02-16T06:06:28;12.93;;;6.13;;
31347;SDS011;21711;49.708;18.568;2024-02-16T06:08:55;12.85;;;6.30;;
31347;SDS011;21711;49.708;18.568;2024-02-16T06:11:23;12.75;;;5.90;;
31347;SDS011;21711;49.708;18.568;2024-02-16T06:13:50;11.35;;;5.93;;
31347;SDS011;21711;49.708;18.568;2024-02-16T06:16:17;13.63;;;5.47;;
31347;SDS011;21711;49.708;18.568;2024-02-16T06:18:46;9.52;;;5.57;;
31347;SDS011;21711;49.708;18.568;2024-02-16T06:21:13;11.88;;;5.75;;
31347;SDS011;21711;49.708;18.568;2024-02-16T06:23:42;10.68;;;4.18;;
31347;SDS011;21711;49.708;18.568;2024-02-16T06:26:10;7.10;;;4.28;;
31347;SDS011;21711;49.708;18.568;2024-02-16T06:28:37;7.13;;;3.65;;
31347;SDS011;21711;49.708;18.568;2024-02-16T06:31:05;9.30;;;4.22;;
31347;SDS011;21711;49.708;18.568;2024-02-16T06:33:32;8.90;;;3.97;;
31347;SDS011;21711;49.708;18.568;2024-02-16T06:36:00;6.38;;;3.60;;
31347;SDS011;21711;49.708;18.568;2024-02-16T06:38:27;6.55;;;3.50;;
31347;SDS011;21711;49.708;18.568;2024-02-16T06:40:55;9.48;;;3.65;;
31347;SDS011;21711;49.708;18.568;2024-02-16T06:43:22;6.10;;;3.03;;
31347;SDS011;21711;49.708;18.568;2024-02-16T06:45:49;6.88;;;3.47;;
31347;SDS011;21711;49.708;18.568;2024-02-16T06:48:17;7.47;;;3.50;;
31347;SDS011;21711;49.708;18.568;2024-02-16T06:50:44;6.03;;;3.33;;
31347;SDS011;21711;49.708;18.568;2024-02-16T06:53:13;14.50;;;3.92;;
31347;SDS011;21711;49.708;18.568;2024-02-16T06:55:41;6.43;;;2.90;;
31347;SDS011;21711;49.708;18.568;2024-02-16T06:58:08;7.82;;;4.20;;
31347;SDS011;21711;49.708;18.568;2024-02-16T07:00:35;8.75;;;3.40;;
31347;SDS011;21711;49.708;18.568;2024-02-16T07:03:03;12.88;;;4.25;;
31347;SDS011;21711;49.708;18.568;2024-02-16T07:05:31;8.20;;;4.00;;
31347;SDS011;21711;49.708;18.568;2024-02-16T07:08:02;7.50;;;4.20;;
31347;SDS011;21711;49.708;18.568;2024-02-16T07:10:33;7.32;;;3.53;;
31347;SDS011;21711;49.708;18.568;2024-02-16T07:13:00;7.93;;;3.90;;
31347;SDS011;21711;49.708;18.568;2024-02-16T07:15:28;12.45;;;4.13;;
31347;SDS011;21711;49.708;18.568;2024-02-16T07:17:55;5.90;;;3.47;;
31347;SDS011;21711;49.708;18.568;2024-02-16T07:20:23;5.78;;;3.53;;
31347;SDS011;21711;49.708;18.568;2024-02-16T07:22:51;7.28;;;3.63;;
31347;SDS011;21711;49.708;18.568;2024-02-16T07:25:19;6.05;;;3.10;;
31347;SDS011;21711;49.708;18.568;2024-02-16T07:27:46;5.68;;;3.08;;
31347;SDS011;21711;49.708;18.568;2024-02-16T07:30:14;6.93;;;3.33;;
31347;SDS011;21711;49.708;18.568;2024-02-16T07:32:52;8.95;;;3.65;;
31347;SDS011;21711;49.708;18.568;2024-02-16T07:35:20;7.15;;;3.72;;
31347;SDS011;21711;49.708;18.568;2024-02-16T07:37:51;7.78;;;4.35;;
31347;SDS011;21711;49.708;18.568;2024-02-16T07:40:20;7.72;;;3.90;;
31347;SDS011;21711;49.708;18.568;2024-02-16T07:42:47;6.35;;;3.30;;
31347;SDS011;21711;49.708;18.568;2024-02-16T07:45:15;6.13;;;2.78;;
31347;SDS011;21711;49.708;18.568;2024-02-16T07:47:42;6.57;;;3.65;;
31347;SDS011;21711;49.708;18.568;2024-02-16T07:50:10;4.70;;;2.65;;
31347;SDS011;21711;49.708;18.568;2024-02-16T07:52:38;7.85;;;2.88;;
31347;SDS011;21711;49.708;18.568;2024-02-16T07:55:06;5.25;;;2.30;;
31347;SDS011;21711;49.708;18.568;2024-02-16T07:57:34;5.30;;;2.80;;
31347;SDS011;21711;49.708;18.568;2024-02-16T08:00:03;4.15;;;2.15;;
31347;SDS011;21711;49.708;18.568;2024-02-16T08:02:37;4.22;;;2.13;;
31347;SDS011;21711;49.708;18.568;2024-02-16T08:05:06;5.22;;;2.53;;
31347;SDS011;21711;49.708;18.568;2024-02-16T08:07:34;3.30;;;2.38;;
31347;SDS011;21711;49.708;18.568;2024-02-16T08:10:02;7.18;;;2.78;;
31347;SDS011;21711;49.708;18.568;2024-02-16T08:12:30;5.00;;;3.20;;
31347;SDS011;21711;49.708;18.568;2024-02-16T08:14:58;4.13;;;2.72;;
31347;SDS011;21711;49.708;18.568;2024-02-16T08:17:26;4.30;;;2.35;;
31347;SDS011;21711;49.708;18.568;2024-02-16T08:19:54;4.30;;;2.75;;
31347;SDS011;21711;49.708;18.568;2024-02-16T08:22:22;7.13;;;2.58;;
31347;SDS011;21711;49.708;18.568;2024-02-16T08:24:49;4.78;;;2.65;;
31347;SDS011;21711;49.708;18.568;2024-02-16T08:27:16;4.88;;;2.70;;
31347;SDS011;21711;49.708;18.568;2024-02-16T08:29:44;4.85;;;2.70;;
31347;SDS011;21711;49.708;18.568;2024-02-16T08:32:12;3.08;;;2.10;;
31347;SDS011;21711;49.708;18.568;2024-02-16T08:34:39;4.10;;;2.25;;
31347;SDS011;21711;49.708;18.568;2024-02-16T08:37:07;8.77;;;2.85;;
31347;SDS011;21711;49.708;18.568;2024-02-16T08:39:34;5.00;;;2.95;;
31347;SDS011;21711;49.708;18.568;2024-02-16T08:42:04;6.28;;;2.80;;
31347;SDS011;21711;49.708;18.568;2024-02-16T08:44:32;4.68;;;3.08;;
31347;SDS011;21711;49.708;18.568;2024-02-16T08:47:00;6.45;;;2.72;;
31347;SDS011;21711;49.708;18.568;2024-02-16T08:49:28;5.95;;;2.78;;
31347;SDS011;21711;49.708;18.568;2024-02-16T08:51:56;4.38;;;2.60;;
31347;SDS011;21711;49.708;18.568;2024-02-16T08:54:23;5.22;;;2.70;;
31347;SDS011;21711;49.708;18.568;2024-02-16T08:56:55;4.15;;;2.50;;
31347;SDS011;21711;49.708;18.568;2024-02-16T08:59:22;4.18;;;2.60;;
31347;SDS011;21711;49.708;18.568;2024-02-16T09:01:50;6.18;;;3.33;;
31347;SDS011;21711;49.708;18.568;2024-02-16T09:04:17;2.75;;;2.10;;
31347;SDS011;21711;49.708;18.568;2024-02-16T09:06:45;4.18;;;2.20;;
31347;SDS011;21711;49.708;18.568;2024-02-16T09:09:12;3.25;;;2.17;;
31347;SDS011;21711;49.708;18.568;2024-02-16T09:11:41;6.25;;;3.80;;
31347;SDS011;21711;49.708;18.568;2024-02-16T09:14:09;4.45;;;2.20;;
31347;SDS011;21711;49.708;18.568;2024-02-16T09:16:36;4.97;;;2.80;;
31347;SDS011;21711;49.708;18.568;2024-02-16T09:19:03;4.78;;;2.92;;
31347;SDS011;21711;49.708;18.568;2024-02-16T09:21:32;5.60;;;3.42;;
31347;SDS011;21711;49.708;18.568;2024-02-16T09:24:00;7.00;;;1.95;;
31347;SDS011;21711;49.708;18.568;2024-02-16T09:26:28;3.15;;;2.33;;
31347;SDS011;21711;49.708;18.568;2024-02-16T09:29:00;5.32;;;2.53;;
31347;SDS011;21711;49.708;18.568;2024-02-16T09:31:28;5.05;;;3.42;;
31347;SDS011;21711;49.708;18.568;2024-02-16T09:33:55;3.30;;;1.95;;
31347;SDS011;21711;49.708;18.568;2024-02-16T09:36:23;4.43;;;2.10;;
31347;SDS011;21711;49.708;18.568;2024-02-16T09:38:51;3.63;;;2.25;;
31347;SDS011;21711;49.708;18.568;2024-02-16T09:41:19;3.22;;;2.50;;
31347;SDS011;21711;49.708;18.568;2024-02-16T09:43:49;3.88;;;2.88;;
31347;SDS011;21711;49.708;18.568;2024-02-16T09:46:21;7.25;;;4.85;;
31347;SDS011;21711;49.708;18.568;2024-02-16T09:48:49;12.13;;;8.60;;
31347;SDS011;21711;49.708;18.568;2024-02-16T09:51:19;19.90;;;2.33;;
31347;SDS011;21711;49.708;18.568;2024-02-16T09:53:50;7.63;;;2.90;;
31347;SDS011;21711;49.708;18.568;2024-02-16T09:56:21;3.35;;;2.20;;
31347;SDS011;21711;49.708;18.568;2024-02-16T10:01:18;2.45;;;2.10;;
31347;SDS011;21711;49.708;18.568;2024-02-16T10:03:47;3.80;;;2.08;;
31347;SDS011;21711;49.708;18.568;2024-02-16T10:06:16;5.60;;;2.80;;
31347;SDS011;21711;49.708;18.568;2024-02-16T10:08:48;5.72;;;2.65;;
31347;SDS011;21711;49.708;18.568;2024-02-16T10:11:21;7.50;;;5.20;;
31347;SDS011;21711;49.708;18.568;2024-02-16T10:13:57;3.55;;;2.15;;
31347;SDS011;21711;49.708;18.568;2024-02-16T10:16:30;4.20;;;2.30;;
31347;SDS011;21711;49.708;18.568;2024-02-16T10:19:07;4.30;;;2.63;;
31347;SDS011;21711;49.708;18.568;2024-02-16T10:21:43;96.68;;;7.78;;
31347;SDS011;21711;49.708;18.568;2024-02-16T10:24:11;5.28;;;2.00;;
31347;SDS011;21711;49.708;18.568;2024-02-16T10:26:41;2.55;;;1.60;;
31347;SDS011;21711;49.708;18.568;2024-02-16T10:29:09;1.88;;;1.50;;
31347;SDS011;21711;49.708;18.568;2024-02-16T10:31:41;1.95;;;1.65;;
31347;SDS011;21711;49.708;18.568;2024-02-16T10:34:08;13.63;;;2.20;;
31347;SDS011;21711;49.708;18.568;2024-02-16T10:36:37;1.85;;;1.48;;
31347;SDS011;21711;49.708;18.568;2024-02-16T10:39:05;3.17;;;1.80;;
31347;SDS011;21711;49.708;18.568;2024-02-16T10:41:39;2.80;;;1.80;;
31347;SDS011;21711;49.708;18.568;2024-02-16T10:44:08;2.58;;;1.92;;
31347;SDS011;21711;49.708;18.568;2024-02-16T10:46:37;3.85;;;2.22;;
31347;SDS011;21711;49.708;18.568;2024-02-16T10:49:06;3.80;;;1.50;;
31347;SDS011;21711;49.708;18.568;2024-02-16T10:51:45;2.47;;;1.50;;
31347;SDS011;21711;49.708;18.568;2024-02-16T10:54:19;2.97;;;1.70;;
31347;SDS011;21711;49.708;18.568;2024-02-16T10:56:55;2.85;;;1.60;;
31347;SDS011;21711;49.708;18.568;2024-02-16T10:59:23;3.60;;;1.95;;
31347;SDS011;21711;49.708;18.568;2024-02-16T11:01:58;2.22;;;1.65;;
31347;SDS011;21711;49.708;18.568;2024-02-16T11:04:35;4.03;;;1.90;;
31347;SDS011;21711;49.708;18.568;2024-02-16T11:07:14;2.13;;;1.67;;
31347;SDS011;21711;49.708;18.568;2024-02-16T11:09:45;2.60;;;1.88;;
31347;SDS011;21711;49.708;18.568;2024-02-16T11:12:13;2.42;;;1.80;;
31347;SDS011;21711;49.708;18.568;2024-02-16T11:14:43;2.35;;;1.67;;
31347;SDS011;21711;49.708;18.568;2024-02-16T11:17:20;2.20;;;1.60;;
31347;SDS011;21711;49.708;18.568;2024-02-16T11:19:50;5.22;;;2.30;;
31347;SDS011;21711;49.708;18.568;2024-02-16T11:22:21;3.65;;;2.10;;
31347;SDS011;21711;49.708;18.568;2024-02-16T11:24:53;3.95;;;2.55;;
31347;SDS011;21711;49.708;18.568;2024-02-16T11:27:26;1.98;;;1.73;;
31347;SDS011;21711;49.708;18.568;2024-02-16T11:29:53;2.38;;;1.95;;
31347;SDS011;21711;49.708;18.568;2024-02-16T11:32:22;3.23;;;1.43;;
31347;SDS011;21711;49.708;18.568;2024-02-16T11:34:49;2.55;;;1.60;;
31347;SDS011;21711;49.708;18.568;2024-02-16T11:37:17;3.67;;;1.60;;
31347;SDS011;21711;49.708;18.568;2024-02-16T11:39:45;6.30;;;3.55;;
31347;SDS011;21711;49.708;18.568;2024-02-16T11:42:14;3.23;;;1.80;;
31347;SDS011;21711;49.708;18.568;2024-02-16T11:44:50;10.07;;;3.15;;
31347;SDS011;21711;49.708;18.568;2024-02-16T11:47:22;3.80;;;2.20;;
31347;SDS011;21711;49.708;18.568;2024-02-16T11:50:06;2.85;;;1.92;;
31347;SDS011;21711;49.708;18.568;2024-02-16T11:52:38;2.15;;;1.80;;
31347;SDS011;21711;49.708;18.568;2024-02-16T11:55:09;2.00;;;1.60;;
31347;SDS011;21711;49.708;18.568;2024-02-16T11:57:38;7.10;;;1.90;;
31347;SDS011;21711;49.708;18.568;2024-02-16T12:00:07;2.45;;;1.27;;
31347;SDS011;21711;49.708;18.568;2024-02-16T12:02:37;2.83;;;2.00;;
31347;SDS011;21711;49.708;18.568;2024-02-16T12:05:05;3.35;;;1.70;;
31347;SDS011;21711;49.708;18.568;2024-02-16T12:07:37;4.03;;;2.40;;
31347;SDS011;21711;49.708;18.568;2024-02-16T12:10:07;2.13;;;1.70;;
31347;SDS011;21711;49.708;18.568;2024-02-16T12:12:38;2.28;;;1.60;;
31347;SDS011;21711;49.708;18.568;2024-02-16T12:15:05;15.23;;;2.00;;
31347;SDS011;21711;49.708;18.568;2024-02-16T12:17:34;3.22;;;2.03;;
31347;SDS011;21711;49.708;18.568;2024-02-16T12:20:02;2.95;;;1.88;;
31347;SDS011;21711;49.708;18.568;2024-02-16T12:22:37;5.88;;;2.22;;
31347;SDS011;21711;49.708;18.568;2024-02-16T12:25:04;2.85;;;1.80;;
31347;SDS011;21711;49.708;18.568;2024-02-16T12:27:32;2.22;;;1.75;;
31347;SDS011;21711;49.708;18.568;2024-02-16T12:30:00;2.65;;;2.17;;
31347;SDS011;21711;49.708;18.568;2024-02-16T12:32:29;2.95;;;2.33;;
31347;SDS011;21711;49.708;18.568;2024-02-16T12:34:56;3.63;;;2.40;;
31347;SDS011;21711;49.708;18.568;2024-02-16T12:37:24;4.93;;;2.30;;
31347;SDS011;21711;49.708;18.568;2024-02-16T12:39:52;4.20;;;3.15;;
31347;SDS011;21711;49.708;18.568;2024-02-16T12:42:19;4.05;;;2.97;;
31347;SDS011;21711;49.708;18.568;2024-02-16T12:44:47;3.45;;;2.47;;
31347;SDS011;21711;49.708;18.568;2024-02-16T12:47:14;7.55;;;2.47;;
31347;SDS011;21711;49.708;18.568;2024-02-16T12:49:41;3.47;;;2.67;;
31347;SDS011;21711;49.708;18.568;2024-02-16T12:52:10;3.45;;;1.80;;
31347;SDS011;21711;49.708;18.568;2024-02-16T12:54:38;3.35;;;2.35;;
31347;SDS011;21711;49.708;18.568;2024-02-16T12:57:11;5.40;;;3.28;;
31347;SDS011;21711;49.708;18.568;2024-02-16T12:59:40;5.70;;;3.10;;
31347;SDS011;21711;49.708;18.568;2024-02-16T13:02:07;4.15;;;2.30;;
31347;SDS011;21711;49.708;18.568;2024-02-16T13:04:35;2.88;;;1.98;;
31347;SDS011;21711;49.708;18.568;2024-02-16T13:07:02;4.25;;;2.65;;
31347;SDS011;21711;49.708;18.568;2024-02-16T13:09:30;5.80;;;2.60;;
31347;SDS011;21711;49.708;18.568;2024-02-16T13:11:57;6.60;;;2.47;;
31347;SDS011;21711;49.708;18.568;2024-02-16T13:14:25;5.68;;;2.63;;
31347;SDS011;21711;49.708;18.568;2024-02-16T13:16:53;5.70;;;2.60;;
31347;SDS011;21711;49.708;18.568;2024-02-16T13:19:21;3.65;;;2.42;;
31347;SDS011;21711;49.708;18.568;2024-02-16T13:21:48;6.07;;;2.67;;
31347;SDS011;21711;49.708;18.568;2024-02-16T13:24:17;4.53;;;2.33;;
31347;SDS011;21711;49.708;18.568;2024-02-16T13:26:44;3.83;;;2.50;;
31347;SDS011;21711;49.708;18.568;2024-02-16T13:29:12;3.35;;;2.00;;
31347;SDS011;21711;49.708;18.568;2024-02-16T13:31:40;3.25;;;2.40;;
31347;SDS011;21711;49.708;18.568;2024-02-16T13:34:09;5.43;;;2.43;;
31347;SDS011;21711;49.708;18.568;2024-02-16T13:36:36;4.32;;;2.55;;
31347;SDS011;21711;49.708;18.568;2024-02-16T13:39:04;3.85;;;2.70;;
31347;SDS011;21711;49.708;18.568;2024-02-16T13:41:32;5.05;;;2.50;;
31347;SDS011;21711;49.708;18.568;2024-02-16T13:44:00;5.57;;;2.28;;
31347;SDS011;21711;49.708;18.568;2024-02-16T13:46:28;3.28;;;2.10;;
31347;SDS011;21711;49.708;18.568;2024-02-16T13:48:55;3.47;;;2.00;;
31347;SDS011;21711;49.708;18.568;2024-02-16T13:51:23;4.65;;;2.42;;
31347;SDS011;21711;49.708;18.568;2024-02-16T13:53:51;4.55;;;1.70;;
31347;SDS011;21711;49.708;18.568;2024-02-16T13:56:19;3.63;;;1.45;;
31347;SDS011;21711;49.708;18.568;2024-02-16T13:58:46;4.25;;;1.83;;
31347;SDS011;21711;49.708;18.568;2024-02-16T14:01:14;3.08;;;1.65;;
31347;SDS011;21711;49.708;18.568;2024-02-16T14:03:42;3.60;;;1.77;;
31347;SDS011;21711;49.708;18.568;2024-02-16T14:06:10;3.58;;;1.98;;
31347;SDS011;21711;49.708;18.568;2024-02-16T14:08:38;5.60;;;1.48;;
31347;SDS011;21711;49.708;18.568;2024-02-16T14:11:06;2.58;;;1.73;;
31347;SDS011;21711;49.708;18.568;2024-02-16T14:13:35;5.67;;;1.33;;
31347;SDS011;21711;49.708;18.568;2024-02-16T14:16:03;2.95;;;1.58;;
31347;SDS011;21711;49.708;18.568;2024-02-16T14:18:31;2.53;;;1.80;;
31347;SDS011;21711;49.708;18.568;2024-02-16T14:21:02;9.48;;;1.90;;
31347;SDS011;21711;49.708;18.568;2024-02-16T14:23:30;3.28;;;1.40;;
31347;SDS011;21711;49.708;18.568;2024-02-16T14:25:58;2.90;;;1.65;;
31347;SDS011;21711;49.708;18.568;2024-02-16T14:28:26;3.75;;;1.40;;
31347;SDS011;21711;49.708;18.568;2024-02-16T14:30:54;2.20;;;1.20;;
31347;SDS011;21711;49.708;18.568;2024-02-16T14:33:21;3.53;;;1.33;;
31347;SDS011;21711;49.708;18.568;2024-02-16T14:35:59;3.03;;;1.35;;
31347;SDS011;21711;49.708;18.568;2024-02-16T14:40:57;2.00;;;0.98;;